sensor_id;sensor_type;location;lat;lon;timestamp;temperature;humidity
18067;DHT22;9158;51.528;7.192;2023-02-28T00:00:29;-0.50;1.00
18067;DHT22;9158;51.528;7.192;2023-02-28T00:01:00;-0.50;99.90
18067;DHT22;9158;51.528;7.192;2023-02-28T00:01:32;-0.40;99.90
18067;DHT22;9158;51.528;7.192;2023-02-28T00:02:03;-0.50;99.90
18067;DHT22;9158;51.528;7.192;2023-02-28T00:02:35;-0.40;52.10
18067;DHT22;9158;51.528;7.192;2023-02-28T00:03:06;-0.50;99.90
18067;DHT22;9158;51.528;7.192;2023-02-28T00:03:37;-0.50;99.90
18067;DHT22;9158;51.528;7.192;2023-02-28T00:04:09;-0.50;99.90
18067;DHT22;9158;51.528;7.192;2023-02-28T00:04:40;-0.50;61.20
18067;DHT22;9158;51.528;7.192;2023-02-28T00:05:13;-0.50;99.90
18067;DHT22;9158;51.528;7.192;2023-02-28T00:05:45;-0.50;99.90
18067;DHT22;9158;51.528;7.192;2023-02-28T00:06:16;-0.50;8.90
18067;DHT22;9158;51.528;7.192;2023-02-28T00:06:47;-0.50;8.90
18067;DHT22;9158;51.528;7.192;2023-02-28T00:07:19;-0.50;2.10
18067;DHT22;9158;51.528;7.192;2023-02-28T00:07:50;-0.50;99.90
18067;DHT22;9158;51.528;7.192;2023-02-28T00:08:21;-0.50;1.00
18067;DHT22;9158;51.528;7.192;2023-02-28T00:08:52;-0.50;99.90
18067;DHT22;9158;51.528;7.192;2023-02-28T00:09:24;-0.50;1.00
18067;DHT22;9158;51.528;7.192;2023-02-28T00:09:55;-0.50;1.00
18067;DHT22;9158;51.528;7.192;2023-02-28T00:10:28;-0.50;1.00
18067;DHT22;9158;51.528;7.192;2023-02-28T00:11:01;-0.50;1.00
18067;DHT22;9158;51.528;7.192;2023-02-28T00:11:33;-0.50;99.90
18067;DHT22;9158;51.528;7.192;2023-02-28T00:12:06;-0.60;99.90
18067;DHT22;9158;51.528;7.192;2023-02-28T00:12:40;-0.50;99.90
18067;DHT22;9158;51.528;7.192;2023-02-28T00:13:11;-0.60;99.90
18067;DHT22;9158;51.528;7.192;2023-02-28T00:13:45;-0.60;54.00
18067;DHT22;9158;51.528;7.192;2023-02-28T00:14:17;-0.60;99.90
18067;DHT22;9158;51.528;7.192;2023-02-28T00:14:48;-0.50;99.90
18067;DHT22;9158;51.528;7.192;2023-02-28T00:15:19;-0.50;99.90
18067;DHT22;9158;51.528;7.192;2023-02-28T00:15:59;-0.50;1.00
18067;DHT22;9158;51.528;7.192;2023-02-28T00:16:30;-0.50;99.90
18067;DHT22;9158;51.528;7.192;2023-02-28T00:17:02;-0.60;99.90
18067;DHT22;9158;51.528;7.192;2023-02-28T00:17:33;-0.60;1.00
18067;DHT22;9158;51.528;7.192;2023-02-28T00:18:04;-0.60;99.90
18067;DHT22;9158;51.528;7.192;2023-02-28T00:18:37;-0.60;99.90
18067;DHT22;9158;51.528;7.192;2023-02-28T00:19:08;-0.60;99.90
18067;DHT22;9158;51.528;7.192;2023-02-28T00:19:40;-0.60;99.90
18067;DHT22;9158;51.528;7.192;2023-02-28T00:20:12;-0.60;99.90
18067;DHT22;9158;51.528;7.192;2023-02-28T00:20:43;-0.60;99.90
18067;DHT22;9158;51.528;7.192;2023-02-28T00:21:15;-0.60;1.00
18067;DHT22;9158;51.528;7.192;2023-02-28T00:21:46;-0.60;1.00
18067;DHT22;9158;51.528;7.192;2023-02-28T00:22:18;-0.60;1.00
18067;DHT22;9158;51.528;7.192;2023-02-28T00:22:52;-0.60;1.00
18067;DHT22;9158;51.528;7.192;2023-02-28T00:23:23;-0.60;1.00
18067;DHT22;9158;51.528;7.192;2023-02-28T00:23:54;-0.60;99.90
18067;DHT22;9158;51.528;7.192;2023-02-28T00:24:26;-0.60;99.90
18067;DHT22;9158;51.528;7.192;2023-02-28T00:24:57;-0.60;99.90
18067;DHT22;9158;51.528;7.192;2023-02-28T00:25:27;-0.60;99.90
18067;DHT22;9158;51.528;7.192;2023-02-28T00:25:59;-0.60;1.00
18067;DHT22;9158;51.528;7.192;2023-02-28T00:26:30;-0.60;1.00
18067;DHT22;9158;51.528;7.192;2023-02-28T00:27:01;-0.60;1.00
18067;DHT22;9158;51.528;7.192;2023-02-28T00:27:34;-0.60;99.90
18067;DHT22;9158;51.528;7.192;2023-02-28T00:28:08;-0.60;99.90
18067;DHT22;9158;51.528;7.192;2023-02-28T00:28:39;-0.70;99.90
18067;DHT22;9158;51.528;7.192;2023-02-28T00:29:10;-0.70;99.90
18067;DHT22;9158;51.528;7.192;2023-02-28T00:29:42;-0.70;99.90
18067;DHT22;9158;51.528;7.192;2023-02-28T00:30:16;-0.60;99.90
18067;DHT22;9158;51.528;7.192;2023-02-28T00:30:48;-0.60;99.90
18067;DHT22;9158;51.528;7.192;2023-02-28T00:31:19;-0.60;99.90
18067;DHT22;9158;51.528;7.192;2023-02-28T00:31:52;-0.60;99.90
18067;DHT22;9158;51.528;7.192;2023-02-28T00:32:23;-0.50;99.90
18067;DHT22;9158;51.528;7.192;2023-02-28T00:32:54;-0.50;99.90
18067;DHT22;9158;51.528;7.192;2023-02-28T00:33:25;-0.60;1.00
18067;DHT22;9158;51.528;7.192;2023-02-28T00:33:58;-0.50;37.30
18067;DHT22;9158;51.528;7.192;2023-02-28T00:34:29;-0.50;99.90
18067;DHT22;9158;51.528;7.192;2023-02-28T00:35:00;-0.50;34.60
18067;DHT22;9158;51.528;7.192;2023-02-28T00:35:32;-0.50;1.00
18067;DHT22;9158;51.528;7.192;2023-02-28T00:36:05;-0.40;1.00
18067;DHT22;9158;51.528;7.192;2023-02-28T00:36:37;-0.40;1.00
18067;DHT22;9158;51.528;7.192;2023-02-28T00:37:11;-0.40;1.00
18067;DHT22;9158;51.528;7.192;2023-02-28T00:37:42;-0.30;1.00
18067;DHT22;9158;51.528;7.192;2023-02-28T00:38:14;-0.30;1.00
18067;DHT22;9158;51.528;7.192;2023-02-28T00:38:46;-0.30;1.00
18067;DHT22;9158;51.528;7.192;2023-02-28T00:39:17;-0.30;1.00
18067;DHT22;9158;51.528;7.192;2023-02-28T00:39:48;-0.30;1.00
18067;DHT22;9158;51.528;7.192;2023-02-28T00:40:20;-0.30;1.00
18067;DHT22;9158;51.528;7.192;2023-02-28T00:40:52;-0.30;1.00
18067;DHT22;9158;51.528;7.192;2023-02-28T00:41:23;-0.30;1.00
18067;DHT22;9158;51.528;7.192;2023-02-28T00:41:54;-0.30;1.00
18067;DHT22;9158;51.528;7.192;2023-02-28T00:42:26;-0.30;75.10
18067;DHT22;9158;51.528;7.192;2023-02-28T00:42:59;-0.30;99.90
18067;DHT22;9158;51.528;7.192;2023-02-28T00:43:31;-0.40;1.00
18067;DHT22;9158;51.528;7.192;2023-02-28T00:44:03;-0.40;1.00
18067;DHT22;9158;51.528;7.192;2023-02-28T00:44:36;-0.40;1.00
18067;DHT22;9158;51.528;7.192;2023-02-28T00:45:08;-0.40;1.00
18067;DHT22;9158;51.528;7.192;2023-02-28T00:45:42;-0.40;1.00
18067;DHT22;9158;51.528;7.192;2023-02-28T00:46:14;-0.50;1.00
18067;DHT22;9158;51.528;7.192;2023-02-28T00:46:44;-0.50;1.00
18067;DHT22;9158;51.528;7.192;2023-02-28T00:47:16;-0.50;1.00
18067;DHT22;9158;51.528;7.192;2023-02-28T00:47:47;-0.50;1.00
18067;DHT22;9158;51.528;7.192;2023-02-28T00:48:20;-0.60;1.00
18067;DHT22;9158;51.528;7.192;2023-02-28T00:48:52;-0.60;1.00
18067;DHT22;9158;51.528;7.192;2023-02-28T00:49:23;-0.60;1.00
18067;DHT22;9158;51.528;7.192;2023-02-28T00:49:54;-0.60;1.00
18067;DHT22;9158;51.528;7.192;2023-02-28T00:50:26;-0.60;1.00
18067;DHT22;9158;51.528;7.192;2023-02-28T00:50:57;-0.60;99.90
18067;DHT22;9158;51.528;7.192;2023-02-28T00:51:27;-0.60;1.00
18067;DHT22;9158;51.528;7.192;2023-02-28T00:52:01;-0.60;99.90
18067;DHT22;9158;51.528;7.192;2023-02-28T00:52:33;-0.60;99.90
18067;DHT22;9158;51.528;7.192;2023-02-28T00:53:03;-0.60;99.90
18067;DHT22;9158;51.528;7.192;2023-02-28T00:53:35;-0.60;99.90
18067;DHT22;9158;51.528;7.192;2023-02-28T00:54:06;-0.50;99.90
18067;DHT22;9158;51.528;7.192;2023-02-28T00:54:37;-0.50;99.90
18067;DHT22;9158;51.528;7.192;2023-02-28T00:55:09;-0.50;99.90
18067;DHT22;9158;51.528;7.192;2023-02-28T00:55:40;-0.50;99.90
18067;DHT22;9158;51.528;7.192;2023-02-28T00:56:11;-0.50;99.90
18067;DHT22;9158;51.528;7.192;2023-02-28T00:56:43;-0.50;99.90
18067;DHT22;9158;51.528;7.192;2023-02-28T00:57:14;-0.50;99.90
18067;DHT22;9158;51.528;7.192;2023-02-28T00:57:45;-0.50;99.90
18067;DHT22;9158;51.528;7.192;2023-02-28T00:58:18;-0.50;99.90
18067;DHT22;9158;51.528;7.192;2023-02-28T00:58:49;-0.50;99.90
18067;DHT22;9158;51.528;7.192;2023-02-28T00:59:20;-0.50;1.00
18067;DHT22;9158;51.528;7.192;2023-02-28T00:59:52;-0.50;1.00
18067;DHT22;9158;51.528;7.192;2023-02-28T01:00:25;-0.50;1.00
18067;DHT22;9158;51.528;7.192;2023-02-28T01:00:56;-0.50;1.00
18067;DHT22;9158;51.528;7.192;2023-02-28T01:01:28;-0.50;1.00
18067;DHT22;9158;51.528;7.192;2023-02-28T01:01:59;-0.50;99.90
18067;DHT22;9158;51.528;7.192;2023-02-28T01:02:30;-0.50;99.90
18067;DHT22;9158;51.528;7.192;2023-02-28T01:03:02;-0.60;1.00
18067;DHT22;9158;51.528;7.192;2023-02-28T01:03:33;-0.60;1.00
18067;DHT22;9158;51.528;7.192;2023-02-28T01:04:05;-0.60;99.90
18067;DHT22;9158;51.528;7.192;2023-02-28T01:04:36;-0.60;99.90
18067;DHT22;9158;51.528;7.192;2023-02-28T01:05:07;-0.60;99.90
18067;DHT22;9158;51.528;7.192;2023-02-28T01:05:39;-0.70;1.00
18067;DHT22;9158;51.528;7.192;2023-02-28T01:06:11;-0.70;1.00
18067;DHT22;9158;51.528;7.192;2023-02-28T01:06:43;-0.70;99.90
18067;DHT22;9158;51.528;7.192;2023-02-28T01:07:15;-0.70;99.90
18067;DHT22;9158;51.528;7.192;2023-02-28T01:07:45;-0.70;99.90
18067;DHT22;9158;51.528;7.192;2023-02-28T01:08:16;-0.70;99.90
18067;DHT22;9158;51.528;7.192;2023-02-28T01:08:48;-0.70;99.90
18067;DHT22;9158;51.528;7.192;2023-02-28T01:09:19;-0.80;99.90
18067;DHT22;9158;51.528;7.192;2023-02-28T01:09:50;-0.80;99.90
18067;DHT22;9158;51.528;7.192;2023-02-28T01:10:21;-0.80;99.90
18067;DHT22;9158;51.528;7.192;2023-02-28T01:10:53;-0.80;99.90
18067;DHT22;9158;51.528;7.192;2023-02-28T01:11:25;-0.80;99.90
18067;DHT22;9158;51.528;7.192;2023-02-28T01:11:57;-0.80;99.90
18067;DHT22;9158;51.528;7.192;2023-02-28T01:12:29;-0.80;99.90
18067;DHT22;9158;51.528;7.192;2023-02-28T01:13:00;-0.80;99.90
18067;DHT22;9158;51.528;7.192;2023-02-28T01:13:32;-0.80;99.90
18067;DHT22;9158;51.528;7.192;2023-02-28T01:14:04;-0.80;99.90
18067;DHT22;9158;51.528;7.192;2023-02-28T01:14:36;-0.80;99.90
18067;DHT22;9158;51.528;7.192;2023-02-28T01:15:09;-0.80;99.90
18067;DHT22;9158;51.528;7.192;2023-02-28T01:15:45;-0.80;99.90
18067;DHT22;9158;51.528;7.192;2023-02-28T01:16:17;-0.80;99.90
18067;DHT22;9158;51.528;7.192;2023-02-28T01:16:49;-0.80;1.00
18067;DHT22;9158;51.528;7.192;2023-02-28T01:17:22;-0.80;99.90
18067;DHT22;9158;51.528;7.192;2023-02-28T01:17:54;-0.80;1.00
18067;DHT22;9158;51.528;7.192;2023-02-28T01:18:26;-0.80;99.90
18067;DHT22;9158;51.528;7.192;2023-02-28T01:18:57;-0.80;99.90
18067;DHT22;9158;51.528;7.192;2023-02-28T01:19:29;-0.70;99.90
18067;DHT22;9158;51.528;7.192;2023-02-28T01:20:00;-0.80;99.90
18067;DHT22;9158;51.528;7.192;2023-02-28T01:20:31;-0.80;99.90
18067;DHT22;9158;51.528;7.192;2023-02-28T01:21:04;-0.70;99.90
18067;DHT22;9158;51.528;7.192;2023-02-28T01:21:35;-0.80;99.90
18067;DHT22;9158;51.528;7.192;2023-02-28T01:22:06;-0.80;99.90
18067;DHT22;9158;51.528;7.192;2023-02-28T01:22:39;-0.70;99.90
18067;DHT22;9158;51.528;7.192;2023-02-28T01:23:12;-0.80;99.90
18067;DHT22;9158;51.528;7.192;2023-02-28T01:23:43;-0.80;99.90
18067;DHT22;9158;51.528;7.192;2023-02-28T01:24:15;-0.80;99.90
18067;DHT22;9158;51.528;7.192;2023-02-28T01:24:46;-0.80;99.90
18067;DHT22;9158;51.528;7.192;2023-02-28T01:25:17;-0.80;99.90
18067;DHT22;9158;51.528;7.192;2023-02-28T01:25:49;-0.80;99.90
18067;DHT22;9158;51.528;7.192;2023-02-28T01:26:21;-0.80;99.90
18067;DHT22;9158;51.528;7.192;2023-02-28T01:26:52;-0.80;99.90
18067;DHT22;9158;51.528;7.192;2023-02-28T01:27:25;-0.80;99.90
18067;DHT22;9158;51.528;7.192;2023-02-28T01:27:57;-0.80;99.90
18067;DHT22;9158;51.528;7.192;2023-02-28T01:28:27;-0.80;99.90
18067;DHT22;9158;51.528;7.192;2023-02-28T01:29:02;-0.80;99.90
18067;DHT22;9158;51.528;7.192;2023-02-28T01:29:34;-0.90;99.90
18067;DHT22;9158;51.528;7.192;2023-02-28T01:30:06;-0.80;99.90
18067;DHT22;9158;51.528;7.192;2023-02-28T01:30:37;-0.90;99.90
18067;DHT22;9158;51.528;7.192;2023-02-28T01:31:11;-0.80;99.90
18067;DHT22;9158;51.528;7.192;2023-02-28T01:31:42;-0.80;99.90
18067;DHT22;9158;51.528;7.192;2023-02-28T01:32:14;-0.80;99.90
18067;DHT22;9158;51.528;7.192;2023-02-28T01:32:45;-0.80;99.90
18067;DHT22;9158;51.528;7.192;2023-02-28T01:33:16;-0.90;99.90
18067;DHT22;9158;51.528;7.192;2023-02-28T01:33:48;-0.90;99.90
18067;DHT22;9158;51.528;7.192;2023-02-28T01:34:18;-0.90;99.90
18067;DHT22;9158;51.528;7.192;2023-02-28T01:34:49;-0.90;99.90
18067;DHT22;9158;51.528;7.192;2023-02-28T01:35:21;-0.90;99.90
18067;DHT22;9158;51.528;7.192;2023-02-28T01:35:58;-0.90;99.90
18067;DHT22;9158;51.528;7.192;2023-02-28T01:36:29;-1.00;99.90
18067;DHT22;9158;51.528;7.192;2023-02-28T01:37:01;-1.00;99.90
18067;DHT22;9158;51.528;7.192;2023-02-28T01:37:32;-1.00;99.90
18067;DHT22;9158;51.528;7.192;2023-02-28T01:38:03;-1.00;99.90
18067;DHT22;9158;51.528;7.192;2023-02-28T01:38:34;-1.00;99.90
18067;DHT22;9158;51.528;7.192;2023-02-28T01:39:06;-0.90;99.90
18067;DHT22;9158;51.528;7.192;2023-02-28T01:39:37;-0.90;99.90
18067;DHT22;9158;51.528;7.192;2023-02-28T01:40:09;-0.90;99.90
18067;DHT22;9158;51.528;7.192;2023-02-28T01:40:41;-0.90;99.90
18067;DHT22;9158;51.528;7.192;2023-02-28T01:41:15;-0.90;99.90
18067;DHT22;9158;51.528;7.192;2023-02-28T01:41:46;-0.90;99.90
18067;DHT22;9158;51.528;7.192;2023-02-28T01:42:17;-0.90;99.90
18067;DHT22;9158;51.528;7.192;2023-02-28T01:42:49;-0.80;99.90
18067;DHT22;9158;51.528;7.192;2023-02-28T01:43:23;-0.80;99.90
18067;DHT22;9158;51.528;7.192;2023-02-28T01:44:04;-0.80;99.90
18067;DHT22;9158;51.528;7.192;2023-02-28T01:44:59;-0.70;99.90
18067;DHT22;9158;51.528;7.192;2023-02-28T01:45:31;-0.70;99.90
18067;DHT22;9158;51.528;7.192;2023-02-28T01:46:04;-0.70;99.90
18067;DHT22;9158;51.528;7.192;2023-02-28T01:46:36;-0.80;99.90
18067;DHT22;9158;51.528;7.192;2023-02-28T01:47:07;-0.80;99.90
18067;DHT22;9158;51.528;7.192;2023-02-28T01:47:41;-0.90;99.90
18067;DHT22;9158;51.528;7.192;2023-02-28T01:48:13;-0.90;99.90
18067;DHT22;9158;51.528;7.192;2023-02-28T01:48:48;-1.00;99.90
18067;DHT22;9158;51.528;7.192;2023-02-28T01:49:20;-1.00;99.90
18067;DHT22;9158;51.528;7.192;2023-02-28T01:49:51;-1.00;99.90
18067;DHT22;9158;51.528;7.192;2023-02-28T01:50:27;-1.00;99.90
18067;DHT22;9158;51.528;7.192;2023-02-28T01:51:04;-1.00;99.90
18067;DHT22;9158;51.528;7.192;2023-02-28T01:51:40;-1.00;99.90
18067;DHT22;9158;51.528;7.192;2023-02-28T01:52:16;-1.00;99.90
18067;DHT22;9158;51.528;7.192;2023-02-28T01:52:50;-1.00;99.90
18067;DHT22;9158;51.528;7.192;2023-02-28T01:53:24;-1.00;99.90
18067;DHT22;9158;51.528;7.192;2023-02-28T01:54:01;-1.00;99.90
18067;DHT22;9158;51.528;7.192;2023-02-28T01:54:34;-0.40;99.90
18067;DHT22;9158;51.528;7.192;2023-02-28T01:55:07;-1.00;99.90
18067;DHT22;9158;51.528;7.192;2023-02-28T01:55:40;-1.00;99.90
18067;DHT22;9158;51.528;7.192;2023-02-28T01:56:14;-1.10;99.90
18067;DHT22;9158;51.528;7.192;2023-02-28T01:56:53;-1.10;99.90
18067;DHT22;9158;51.528;7.192;2023-02-28T01:57:29;-1.10;99.90
18067;DHT22;9158;51.528;7.192;2023-02-28T01:58:08;-1.10;99.90
18067;DHT22;9158;51.528;7.192;2023-02-28T01:58:39;-1.20;99.90
18067;DHT22;9158;51.528;7.192;2023-02-28T01:59:16;-1.20;99.90
18067;DHT22;9158;51.528;7.192;2023-02-28T01:59:54;-1.20;99.90
18067;DHT22;9158;51.528;7.192;2023-02-28T02:00:29;-1.30;99.90
18067;DHT22;9158;51.528;7.192;2023-02-28T02:01:01;-1.30;99.90
18067;DHT22;9158;51.528;7.192;2023-02-28T02:01:33;-1.30;99.90
18067;DHT22;9158;51.528;7.192;2023-02-28T02:02:05;-1.30;99.90
18067;DHT22;9158;51.528;7.192;2023-02-28T02:02:37;-1.30;99.90
18067;DHT22;9158;51.528;7.192;2023-02-28T02:03:12;-1.90;99.90
18067;DHT22;9158;51.528;7.192;2023-02-28T02:03:43;-1.30;99.90
18067;DHT22;9158;51.528;7.192;2023-02-28T02:04:15;-1.30;99.90
18067;DHT22;9158;51.528;7.192;2023-02-28T02:04:52;-1.30;99.90
18067;DHT22;9158;51.528;7.192;2023-02-28T02:05:26;-1.30;99.90
18067;DHT22;9158;51.528;7.192;2023-02-28T02:05:57;-1.30;99.90
18067;DHT22;9158;51.528;7.192;2023-02-28T02:06:31;-1.30;99.90
18067;DHT22;9158;51.528;7.192;2023-02-28T02:07:04;-1.30;99.90
18067;DHT22;9158;51.528;7.192;2023-02-28T02:07:37;-1.40;99.90
18067;DHT22;9158;51.528;7.192;2023-02-28T02:08:20;-1.40;99.90
18067;DHT22;9158;51.528;7.192;2023-02-28T02:08:51;-1.40;99.90
18067;DHT22;9158;51.528;7.192;2023-02-28T02:09:23;-1.40;99.90
18067;DHT22;9158;51.528;7.192;2023-02-28T02:10:00;-1.40;99.90
18067;DHT22;9158;51.528;7.192;2023-02-28T02:10:34;-1.40;99.90
18067;DHT22;9158;51.528;7.192;2023-02-28T02:11:08;-1.40;99.90
18067;DHT22;9158;51.528;7.192;2023-02-28T02:11:43;-1.40;99.90
18067;DHT22;9158;51.528;7.192;2023-02-28T02:12:23;-1.40;99.90
18067;DHT22;9158;51.528;7.192;2023-02-28T02:13:08;-1.30;99.90
18067;DHT22;9158;51.528;7.192;2023-02-28T02:13:56;-1.30;99.90
18067;DHT22;9158;51.528;7.192;2023-02-28T02:14:43;-1.30;99.90
18067;DHT22;9158;51.528;7.192;2023-02-28T02:15:22;-1.30;99.90
18067;DHT22;9158;51.528;7.192;2023-02-28T02:16:02;-1.30;99.90
18067;DHT22;9158;51.528;7.192;2023-02-28T02:16:41;-1.30;99.90
18067;DHT22;9158;51.528;7.192;2023-02-28T02:17:23;-1.40;99.90
18067;DHT22;9158;51.528;7.192;2023-02-28T02:18:01;-1.40;99.90
18067;DHT22;9158;51.528;7.192;2023-02-28T02:18:37;-1.40;99.90
18067;DHT22;9158;51.528;7.192;2023-02-28T02:19:26;-1.40;99.90
18067;DHT22;9158;51.528;7.192;2023-02-28T02:22:56;-1.30;99.90
18067;DHT22;9158;51.528;7.192;2023-02-28T02:23:56;-1.30;99.90
18067;DHT22;9158;51.528;7.192;2023-02-28T02:25:15;-1.30;99.90
18067;DHT22;9158;51.528;7.192;2023-02-28T02:25:53;-1.20;99.90
18067;DHT22;9158;51.528;7.192;2023-02-28T02:26:58;-1.20;99.90
18067;DHT22;9158;51.528;7.192;2023-02-28T02:27:48;-1.30;99.90
18067;DHT22;9158;51.528;7.192;2023-02-28T02:29:44;-1.30;99.90
18067;DHT22;9158;51.528;7.192;2023-02-28T02:31:58;-1.30;99.90
18067;DHT22;9158;51.528;7.192;2023-02-28T02:34:58;-1.40;99.90
18067;DHT22;9158;51.528;7.192;2023-02-28T02:35:35;-1.40;99.90
18067;DHT22;9158;51.528;7.192;2023-02-28T02:36:13;-1.40;99.90
18067;DHT22;9158;51.528;7.192;2023-02-28T02:36:52;-1.40;99.90
18067;DHT22;9158;51.528;7.192;2023-02-28T02:37:36;-1.40;99.90
18067;DHT22;9158;51.528;7.192;2023-02-28T02:38:16;-1.50;99.90
18067;DHT22;9158;51.528;7.192;2023-02-28T02:38:53;-1.50;99.90
18067;DHT22;9158;51.528;7.192;2023-02-28T02:39:32;-1.50;99.90
18067;DHT22;9158;51.528;7.192;2023-02-28T02:40:12;-1.50;99.90
18067;DHT22;9158;51.528;7.192;2023-02-28T02:40:53;-1.50;99.90
18067;DHT22;9158;51.528;7.192;2023-02-28T02:41:31;-1.50;99.90
18067;DHT22;9158;51.528;7.192;2023-02-28T02:42:13;-1.50;99.90
18067;DHT22;9158;51.528;7.192;2023-02-28T02:42:51;-1.50;99.90
18067;DHT22;9158;51.528;7.192;2023-02-28T02:43:29;-1.50;99.90
18067;DHT22;9158;51.528;7.192;2023-02-28T02:44:06;-1.50;99.90
18067;DHT22;9158;51.528;7.192;2023-02-28T02:44:45;-1.40;99.90
18067;DHT22;9158;51.528;7.192;2023-02-28T02:45:22;-1.40;99.90
18067;DHT22;9158;51.528;7.192;2023-02-28T02:45:57;-1.50;99.90
18067;DHT22;9158;51.528;7.192;2023-02-28T02:46:32;-1.50;99.90
18067;DHT22;9158;51.528;7.192;2023-02-28T02:47:08;-1.50;99.90
18067;DHT22;9158;51.528;7.192;2023-02-28T02:47:41;-1.50;99.90
18067;DHT22;9158;51.528;7.192;2023-02-28T02:48:16;-1.50;99.90
18067;DHT22;9158;51.528;7.192;2023-02-28T02:48:50;-1.50;99.90
18067;DHT22;9158;51.528;7.192;2023-02-28T02:49:26;-1.50;99.90
18067;DHT22;9158;51.528;7.192;2023-02-28T02:50:03;-1.50;99.90
18067;DHT22;9158;51.528;7.192;2023-02-28T02:50:39;-1.50;99.90
18067;DHT22;9158;51.528;7.192;2023-02-28T02:51:14;-1.50;99.90
18067;DHT22;9158;51.528;7.192;2023-02-28T02:51:47;-1.60;99.90
18067;DHT22;9158;51.528;7.192;2023-02-28T02:52:22;-1.60;99.90
18067;DHT22;9158;51.528;7.192;2023-02-28T02:52:56;-1.60;99.90
18067;DHT22;9158;51.528;7.192;2023-02-28T02:53:36;-1.60;99.90
18067;DHT22;9158;51.528;7.192;2023-02-28T02:54:14;-1.60;99.90
18067;DHT22;9158;51.528;7.192;2023-02-28T02:54:48;-1.60;99.90
18067;DHT22;9158;51.528;7.192;2023-02-28T02:55:23;-1.60;1.00
18067;DHT22;9158;51.528;7.192;2023-02-28T02:55:55;-1.70;1.00
18067;DHT22;9158;51.528;7.192;2023-02-28T02:56:31;-1.70;1.00
18067;DHT22;9158;51.528;7.192;2023-02-28T02:57:08;-1.70;1.00
18067;DHT22;9158;51.528;7.192;2023-02-28T02:57:45;-1.70;1.00
18067;DHT22;9158;51.528;7.192;2023-02-28T02:58:19;-1.70;1.00
18067;DHT22;9158;51.528;7.192;2023-02-28T02:58:54;-1.70;1.00
18067;DHT22;9158;51.528;7.192;2023-02-28T02:59:28;-1.70;1.00
18067;DHT22;9158;51.528;7.192;2023-02-28T03:00:04;-1.70;1.00
18067;DHT22;9158;51.528;7.192;2023-02-28T03:00:42;-1.70;1.00
18067;DHT22;9158;51.528;7.192;2023-02-28T03:01:19;-1.70;1.00
18067;DHT22;9158;51.528;7.192;2023-02-28T03:02:00;-1.70;1.00
18067;DHT22;9158;51.528;7.192;2023-02-28T03:02:33;-1.70;1.00
18067;DHT22;9158;51.528;7.192;2023-02-28T03:03:05;-1.70;1.00
18067;DHT22;9158;51.528;7.192;2023-02-28T03:03:40;-1.70;1.00
18067;DHT22;9158;51.528;7.192;2023-02-28T03:04:13;-1.70;1.00
18067;DHT22;9158;51.528;7.192;2023-02-28T03:04:51;-1.70;1.00
18067;DHT22;9158;51.528;7.192;2023-02-28T03:05:30;-1.70;1.00
18067;DHT22;9158;51.528;7.192;2023-02-28T03:06:05;-1.70;1.00
18067;DHT22;9158;51.528;7.192;2023-02-28T03:06:36;-1.70;1.00
18067;DHT22;9158;51.528;7.192;2023-02-28T03:07:07;-1.70;1.00
18067;DHT22;9158;51.528;7.192;2023-02-28T03:07:38;-1.70;1.00
18067;DHT22;9158;51.528;7.192;2023-02-28T03:08:10;-1.80;1.00
18067;DHT22;9158;51.528;7.192;2023-02-28T03:08:41;-1.80;1.00
18067;DHT22;9158;51.528;7.192;2023-02-28T03:09:13;-1.70;1.00
18067;DHT22;9158;51.528;7.192;2023-02-28T03:09:51;-1.80;1.00
18067;DHT22;9158;51.528;7.192;2023-02-28T03:10:41;-1.70;1.00
18067;DHT22;9158;51.528;7.192;2023-02-28T03:11:14;-1.70;1.00
18067;DHT22;9158;51.528;7.192;2023-02-28T03:11:49;-1.70;1.00
18067;DHT22;9158;51.528;7.192;2023-02-28T03:12:26;-1.70;1.00
18067;DHT22;9158;51.528;7.192;2023-02-28T03:13:10;-1.70;1.00
18067;DHT22;9158;51.528;7.192;2023-02-28T03:14:56;-1.70;1.00
18067;DHT22;9158;51.528;7.192;2023-02-28T03:15:34;-1.70;1.00
18067;DHT22;9158;51.528;7.192;2023-02-28T03:16:28;-1.70;1.00
18067;DHT22;9158;51.528;7.192;2023-02-28T03:17:20;-1.70;1.00
18067;DHT22;9158;51.528;7.192;2023-02-28T03:18:02;-1.70;1.00
18067;DHT22;9158;51.528;7.192;2023-02-28T03:18:40;-1.70;1.00
18067;DHT22;9158;51.528;7.192;2023-02-28T03:19:31;-1.70;1.00
18067;DHT22;9158;51.528;7.192;2023-02-28T03:20:13;-1.60;1.00
18067;DHT22;9158;51.528;7.192;2023-02-28T03:20:54;-1.70;1.00
18067;DHT22;9158;51.528;7.192;2023-02-28T03:21:33;-1.00;1.00
18067;DHT22;9158;51.528;7.192;2023-02-28T03:22:15;-1.70;1.00
18067;DHT22;9158;51.528;7.192;2023-02-28T03:22:52;-1.70;1.00
18067;DHT22;9158;51.528;7.192;2023-02-28T03:23:34;-1.70;1.00
18067;DHT22;9158;51.528;7.192;2023-02-28T03:24:10;-1.70;1.00
18067;DHT22;9158;51.528;7.192;2023-02-28T03:24:48;-1.70;1.00
18067;DHT22;9158;51.528;7.192;2023-02-28T03:25:29;-1.70;1.00
18067;DHT22;9158;51.528;7.192;2023-02-28T03:26:05;-1.70;99.90
18067;DHT22;9158;51.528;7.192;2023-02-28T03:26:41;-1.60;99.90
18067;DHT22;9158;51.528;7.192;2023-02-28T03:27:17;-1.60;99.90
18067;DHT22;9158;51.528;7.192;2023-02-28T03:27:59;-1.60;99.90
18067;DHT22;9158;51.528;7.192;2023-02-28T03:28:37;-1.60;1.00
18067;DHT22;9158;51.528;7.192;2023-02-28T03:29:14;-1.60;1.00
18067;DHT22;9158;51.528;7.192;2023-02-28T03:29:50;-1.60;99.90
18067;DHT22;9158;51.528;7.192;2023-02-28T03:30:27;-1.70;1.00
18067;DHT22;9158;51.528;7.192;2023-02-28T03:31:03;-1.70;1.00
18067;DHT22;9158;51.528;7.192;2023-02-28T03:31:42;-1.70;1.00
18067;DHT22;9158;51.528;7.192;2023-02-28T03:32:20;-1.70;1.00
18067;DHT22;9158;51.528;7.192;2023-02-28T03:32:55;-1.70;1.00
18067;DHT22;9158;51.528;7.192;2023-02-28T03:33:31;-1.70;1.00
18067;DHT22;9158;51.528;7.192;2023-02-28T03:34:08;-1.60;1.00
18067;DHT22;9158;51.528;7.192;2023-02-28T03:34:45;-1.60;1.00
18067;DHT22;9158;51.528;7.192;2023-02-28T03:35:20;-1.60;1.00
18067;DHT22;9158;51.528;7.192;2023-02-28T03:35:55;-1.70;1.00
18067;DHT22;9158;51.528;7.192;2023-02-28T03:36:30;-1.70;1.00
18067;DHT22;9158;51.528;7.192;2023-02-28T03:37:05;-1.70;1.00
18067;DHT22;9158;51.528;7.192;2023-02-28T03:37:41;-1.70;1.00
18067;DHT22;9158;51.528;7.192;2023-02-28T03:38:18;-1.70;1.00
18067;DHT22;9158;51.528;7.192;2023-02-28T03:38:56;-1.70;1.00
18067;DHT22;9158;51.528;7.192;2023-02-28T03:39:33;-1.80;1.00
18067;DHT22;9158;51.528;7.192;2023-02-28T03:40:08;-1.80;99.90
18067;DHT22;9158;51.528;7.192;2023-02-28T03:40:48;-1.80;1.00
18067;DHT22;9158;51.528;7.192;2023-02-28T03:41:22;-1.80;1.00
18067;DHT22;9158;51.528;7.192;2023-02-28T03:41:58;-1.80;99.90
18067;DHT22;9158;51.528;7.192;2023-02-28T03:42:32;-1.80;99.90
18067;DHT22;9158;51.528;7.192;2023-02-28T03:43:10;-1.80;99.90
18067;DHT22;9158;51.528;7.192;2023-02-28T03:43:48;-1.80;1.00
18067;DHT22;9158;51.528;7.192;2023-02-28T03:44:23;-1.80;1.00
18067;DHT22;9158;51.528;7.192;2023-02-28T03:44:57;-1.80;1.00
18067;DHT22;9158;51.528;7.192;2023-02-28T03:45:32;-1.80;1.00
18067;DHT22;9158;51.528;7.192;2023-02-28T03:46:08;-1.80;1.00
18067;DHT22;9158;51.528;7.192;2023-02-28T03:46:44;-1.90;1.00
18067;DHT22;9158;51.528;7.192;2023-02-28T03:47:19;-1.90;1.00
18067;DHT22;9158;51.528;7.192;2023-02-28T03:47:57;-1.80;1.00
18067;DHT22;9158;51.528;7.192;2023-02-28T03:48:34;-1.80;1.00
18067;DHT22;9158;51.528;7.192;2023-02-28T03:49:13;-1.90;1.00
18067;DHT22;9158;51.528;7.192;2023-02-28T03:49:49;-1.90;1.00
18067;DHT22;9158;51.528;7.192;2023-02-28T03:50:23;-1.90;1.00
18067;DHT22;9158;51.528;7.192;2023-02-28T03:50:57;-1.90;1.00
18067;DHT22;9158;51.528;7.192;2023-02-28T03:51:32;-1.80;1.00
18067;DHT22;9158;51.528;7.192;2023-02-28T03:52:06;-1.90;1.00
18067;DHT22;9158;51.528;7.192;2023-02-28T03:52:40;-1.80;1.00